Los Chavez, New Mexico
Current Conditions -  °F | °C
As of 4:15 PM on Friday 28 Nov 2014 (Local Time) from KE80 Reporting Station
Clear Clear  
Wind Chill: 61°   Ceiling: Unl
Heat Index: 61°   Visibility: 10mi
Dew Point: 21°   Wind: 7mph
Humidity: 21%   Direction: 200°SSW
Pressure: 30.09"   Gusts: NA
Location:  34.5756°N, 106.588°W
Report Text: KE80 282315Z AUTO 20006KT 10SM CLR 16/M06 A3009 RMK AO2 T01631061
Loading
Personal Weather Stations






























Interactive Weather Map New forecast layout! Learn more

10-Day Weather Forecast

Advertisements
Track Severe Weather on mobile